Time;durP1;ratioP1;P1;durP2;ratioP2;P2;SDS_P1;SDS_P2;PMS_P1;PMS_P2;Temp;Humidity;BMP_temperature;BMP_pressure;BME280_temperature;BME280_humidity;BME280_pressure;Samples;Min_cycle;Max_cycle;Signal;HPM_P1;HPM_P2
2022/03/19 02:54:01;;;;;;;4.90;2.63;;;;;;;1.53;42.80;96346.13;2032746;54;50819;-70
2022/03/19 02:56:30;;;;;;;9.80;3.47;;;;;;;0.35;44.60;96292.44;2616049;54;20676;-70
2022/03/19 02:58:58;;;;;;;6.73;4.87;;;;;;;0.63;45.26;96400.38;2615641;47;20259;-70
2022/03/19 03:01:38;;;;;;;2.50;2.40;;;;;;;-0.28;45.89;96291.91;2615720;54;20156;-71
2022/03/19 03:04:10;;;;;;;1.97;1.77;;;;;;;0.12;46.62;96403.78;2615844;54;20197;-70
2022/03/19 03:06:42;;;;;;;6.37;2.67;;;;;;;-0.54;46.23;96289.25;2615437;47;20156;-70
2022/03/19 03:09:25;;;;;;;2.73;2.60;;;;;;;0.20;47.18;96398.25;2615926;47;20145;-70
2022/03/19 03:11:58;;;;;;;1.43;1.43;;;;;;;-0.91;47.53;96296.75;2615446;54;20153;-70
2022/03/19 03:14:38;;;;;;;7.80;4.13;;;;;;;0.39;49.67;96384.06;2615354;54;20151;-70
2022/03/19 03:17:09;;;;;;;1.87;1.87;;;;;;;2.54;46.19;96393.78;2615365;54;20161;-71
2022/03/19 03:19:51;;;;;;;2.13;1.70;;;;;;;2.40;43.23;96381.31;2615229;47;20158;-70
2022/03/19 03:22:27;;;;;;;2.93;2.77;;;;;;;1.14;42.99;96299.94;2615483;39;20551;-70
2022/03/19 03:25:08;;;;;;;3.33;2.47;;;;;;;1.76;44.04;96344.13;2615292;54;20172;-71
2022/03/19 03:27:52;;;;;;;2.90;2.10;;;;;;;2.65;49.03;96323.44;2615146;47;20153;-71
2022/03/19 03:30:25;;;;;;;2.07;1.80;;;;;;;3.40;41.09;96394.41;2615073;54;20162;-71
2022/03/19 03:33:04;;;;;;;4.20;2.40;;;;;;;2.09;41.90;96325.44;2615472;47;20186;-71
2022/03/19 03:35:36;;;;;;;2.10;2.00;;;;;;;2.53;41.24;96383.16;2615135;47;20153;-71
2022/03/19 03:38:14;;;;;;;1.20;1.20;;;;;;;2.47;44.30;96288.25;2614935;47;20200;-71
2022/03/19 03:40:51;;;;;;;3.93;2.33;;;;;;;3.60;40.29;96377.84;2615325;54;20163;-69
2022/03/19 03:43:27;;;;;;;1.93;1.90;;;;;;;2.44;41.03;96378.91;2615037;54;20175;-70
2022/03/19 03:45:58;;;;;;;1.53;1.43;;;;;;;1.77;44.81;96390.31;2615333;54;20152;-70
2022/03/19 03:48:35;;;;;;;2.77;1.80;;;;;;;1.94;45.44;96392.53;2615236;47;20161;-70
2022/03/19 03:51:11;;;;;;;2.67;2.57;;;;;;;1.04;43.29;96308.09;2615346;47;20156;-69
2022/03/19 03:53:54;;;;;;;2.93;2.63;;;;;;;0.51;44.27;96288.41;2615263;39;20586;-69
2022/03/19 03:56:27;;;;;;;2.00;1.87;;;;;;;0.54;45.29;96382.13;2615190;47;20149;-71
2022/03/19 03:59:06;;;;;;;3.80;3.07;;;;;;;-0.60;46.95;96333.94;2615606;39;20646;-71
2022/03/19 04:01:42;;;;;;;1.93;1.93;;;;;;;-0.97;46.74;96270.34;2615036;54;20157;-71
2022/03/19 04:04:18;;;;;;;2.83;1.03;;;;;;;-0.78;48.04;96394.06;2615187;47;20168;-71
2022/03/19 04:07:02;;;;;;;3.33;1.40;;;;;;;-2.54;49.64;96212.59;2615031;47;20157;-71
2022/03/19 04:09:34;;;;;;;4.60;1.90;;;;;;;-1.77;52.34;96347.63;2615678;39;20510;-71
2022/03/19 04:12:24;;;;;;;2.13;1.97;;;;;;;-0.75;49.48;96351.25;2614793;47;20158;-71
2022/03/19 04:15:08;;;;;;;2.50;2.37;;;;;;;1.53;59.13;96276.31;2615057;54;20167;-71
2022/03/19 04:17:40;;;;;;;3.87;2.83;;;;;;;3.13;48.17;96306.63;2614925;54;20673;-71
2022/03/19 04:20:22;;;;;;;1.70;1.60;;;;;;;4.39;46.01;96370.47;2615139;47;20163;-70
2022/03/19 04:22:54;;;;;;;5.37;3.10;;;;;;;4.14;40.50;96284.34;2615017;54;20141;-71
2022/03/19 04:25:36;;;;;;;17.20;2.13;;;;;;;4.24;41.07;96376.97;2615140;54;20154;-69
2022/03/19 04:28:14;;;;;;;4.30;2.83;;;;;;;5.25;49.95;96395.75;2614908;47;20163;-72
2022/03/19 04:30:53;;;;;;;2.13;1.73;;;;;;;6.29;49.28;96407.38;2614823;54;20152;-72
2022/03/19 04:33:26;;;;;;;2.73;2.57;;;;;;;6.63;47.86;96390.31;2615449;54;20148;-71
2022/03/19 04:38:42;;;;;;;2.07;1.97;;;;;;;6.38;40.92;96317.38;2615176;47;20661;-71
2022/03/19 04:41:25;;;;;;;3.37;2.37;;;;;;;6.48;42.29;96313.81;2615071;39;20254;-71
2022/03/19 04:44:02;;;;;;;2.43;2.27;;;;;;;6.85;43.87;96337.69;2615128;47;20268;-71
2022/03/19 04:46:37;;;;;;;4.23;3.83;;;;;;;5.15;36.53;96314.22;2614921;47;20149;-70
2022/03/19 04:49:15;;;;;;;4.30;2.47;;;;;;;4.38;36.95;96394.25;2615096;47;20152;-71
2022/03/19 04:51:49;;;;;;;4.33;4.00;;;;;;;2.49;39.89;96369.53;2615571;54;20148;-71
2022/03/19 04:54:26;;;;;;;3.77;3.13;;;;;;;1.96;42.20;96398.31;2615352;47;20192;-71
2022/03/19 04:56:59;;;;;;;3.97;3.67;;;;;;;1.86;43.80;96397.38;2614941;47;20184;-71
2022/03/19 04:59:46;;;;;;;3.30;2.90;;;;;;;0.59;44.24;96339.38;2614909;47;20142;-71
2022/03/19 05:02:18;;;;;;;2.93;2.73;;;;;;;1.09;47.68;96342.72;2614894;47;20141;-71
2022/03/19 05:04:50;;;;;;;2.70;2.10;;;;;;;2.94;49.81;96343.47;2615494;54;20157;-71
2022/03/19 05:07:35;;;;;;;3.37;3.13;;;;;;;3.38;41.22;96396.28;2614920;47;20158;-71
2022/03/19 05:12:58;;;;;;;4.40;3.13;;;;;;;3.20;43.71;96390.56;2615254;54;20152;-73
2022/03/19 05:15:34;;;;;;;2.97;2.77;;;;;;;2.41;43.30;96377.97;2614970;47;20152;-71
2022/03/19 05:18:30;;;;;;;2.33;2.23;;;;;;;2.20;42.70;96334.75;2614708;54;20156;-71
2022/03/19 05:21:06;;;;;;;21.87;3.97;;;;;;;1.73;43.87;96378.75;2614612;54;20154;-71
2022/03/19 05:23:38;;;;;;;8.47;5.97;;;;;;;0.42;45.20;96308.44;2615594;47;20725;-70
2022/03/19 05:26:21;;;;;;;5.57;5.07;;;;;;;1.05;45.79;96398.88;2615611;54;20149;-70
2022/03/19 05:31:55;;;;;;;2.53;2.33;;;;;;;0.21;47.66;96335.66;2615518;54;20157;-72
2022/03/19 05:34:34;;;;;;;1.97;1.93;;;;;;;1.21;47.51;96402.47;2615533;54;20171;-73
2022/03/19 05:37:11;;;;;;;2.77;2.63;;;;;;;0.05;47.25;96339.63;2615746;54;20769;-71
2022/03/19 05:39:49;;;;;;;4.20;2.00;;;;;;;0.99;47.32;96414.28;2615607;54;20167;-73
2022/03/19 05:42:31;;;;;;;6.17;2.70;;;;;;;0.08;49.46;96369.19;2615471;54;20177;-72
2022/03/19 05:45:20;;;;;;;;;;;;;;;;;;;;;
2022/03/19 05:47:58;;;;;;;3.27;2.93;;;;;;;-0.39;50.15;96409.09;2615697;54;20788;-71
2022/03/19 05:50:36;;;;;;;3.03;2.83;;;;;;;-1.05;51.43;96372.41;2615845;39;20557;-70
2022/03/19 05:53:07;;;;;;;5.53;3.07;;;;;;;-0.68;51.90;96391.53;2615525;54;20186;-70
2022/03/19 05:55:41;;;;;;;2.10;2.00;;;;;;;-0.68;50.58;96321.25;2615292;54;20148;-72
2022/03/19 05:58:19;;;;;;;4.57;3.50;;;;;;;-0.27;50.51;96393.59;2615528;54;20177;-72
2022/03/19 06:00:51;;;;;;;10.77;3.50;;;;;;;0.58;51.25;96418.72;2615729;54;20156;-70
2022/03/19 06:03:28;;;;;;;4.60;2.47;;;;;;;-0.25;49.05;96365.97;2615770;47;20174;-70
2022/03/19 06:06:07;;;;;;;2.63;2.13;;;;;;;-1.21;51.93;96302.00;2615784;54;20148;-71
2022/03/19 06:08:41;;;;;;;2.20;2.10;;;;;;;-0.31;51.23;96348.66;2616400;54;20146;-71
2022/03/19 06:11:13;;;;;;;3.77;3.50;;;;;;;1.28;50.49;96309.63;2616224;47;20184;-71
2022/03/19 06:13:56;;;;;;;2.17;2.07;;;;;;;2.23;45.25;96331.56;2615901;47;20153;-70
2022/03/19 06:16:27;;;;;;;2.27;2.17;;;;;;;3.11;49.39;96385.59;2616028;54;20149;-72
2022/03/19 06:19:17;;;;;;;3.43;3.30;;;;;;;4.34;41.78;96413.56;2615890;47;20174;-71
2022/03/19 06:24:31;;;;;;;2.60;2.43;;;;;;;2.86;42.24;96348.38;2615541;47;21011;-71
2022/03/19 06:27:14;;;;;;;2.33;2.10;;;;;;;4.38;42.00;96425.09;2615374;47;20149;-70
2022/03/19 06:30:04;;;;;;;3.00;2.73;;;;;;;5.15;40.69;96414.59;2615450;47;20176;-71
2022/03/19 06:32:41;;;;;;;4.13;3.93;;;;;;;4.69;44.69;96350.53;2615999;54;20156;-71
2022/03/19 06:37:19;;;;;;;3.10;2.90;;;;;;;6.03;48.74;96423.00;2615181;47;20149;-70
2022/03/19 06:38:13;;;;;;;2.30;2.10;;;;;;;5.39;35.61;96416.53;2615465;54;20181;-71
2022/03/19 06:40:52;;;;;;;2.37;2.27;;;;;;;5.85;42.03;96422.31;2615515;54;20165;-71
2022/03/19 06:43:24;;;;;;;4.00;3.07;;;;;;;6.61;42.33;96376.06;2615342;54;20179;-71
2022/03/19 06:48:42;;;;;;;1.60;1.33;;;;;;;6.22;34.42;96403.38;2615811;47;20195;-72
2022/03/19 06:51:24;;;;;;;1.43;1.33;;;;;;;5.41;39.80;96422.31;2615505;54;20672;-71
2022/03/19 06:56:41;;;;;;;1.43;1.33;;;;;;;5.81;35.59;96354.50;2615358;47;20283;-71
2022/03/19 07:01:58;;;;;;;1.40;1.30;;;;;;;4.99;36.06;96279.97;2615319;47;20149;-71
2022/03/19 07:04:31;;;;;;;2.50;2.03;;;;;;;4.93;33.92;96304.00;2615257;54;20248;-71
2022/03/19 07:07:18;;;;;;;2.10;1.60;;;;;;;5.50;36.69;96406.84;2615365;47;20244;-72
2022/03/19 07:09:50;;;;;;;1.87;1.77;;;;;;;6.23;35.19;96423.81;2615377;54;20164;-71
2022/03/19 07:12:27;;;;;;;1.37;1.37;;;;;;;7.25;43.00;96418.78;2615630;47;20161;-71
2022/03/19 07:15:01;;;;;;;2.37;1.40;;;;;;;7.59;36.96;96364.16;2615742;39;20516;-71
2022/03/19 07:17:33;;;;;;;1.90;1.80;;;;;;;8.38;38.97;96389.41;2615362;47;20161;-71
2022/03/19 07:20:06;;;;;;;1.60;1.57;;;;;;;8.53;42.62;96318.44;2615597;54;20177;-71
2022/03/19 07:23:04;;;;;;;1.80;1.70;;;;;;;8.85;42.26;96336.78;2615511;54;20157;-70
2022/03/19 07:25:49;;;;;;;3.80;1.43;;;;;;;9.36;40.68;96348.53;2615436;54;20145;-71
2022/03/19 07:28:21;;;;;;;2.00;1.90;;;;;;;9.12;35.33;96342.06;2615507;47;20153;-71
2022/03/19 07:30:53;;;;;;;1.37;1.30;;;;;;;9.71;36.97;96399.53;2615203;54;20157;-71
2022/03/19 07:36:09;;;;;;;2.33;1.63;;;;;;;9.34;31.07;96364.63;2615442;47;20187;-70
2022/03/19 07:38:48;;;;;;;2.50;1.80;;;;;;;9.14;32.94;96361.25;2615411;47;20145;-71
2022/03/19 07:44:14;;;;;;;1.97;1.87;;;;;;;8.93;38.15;96282.88;2615248;47;20156;-70
2022/03/19 07:46:45;;;;;;;2.00;1.80;;;;;;;7.79;30.37;96374.03;2614663;47;20152;-71
2022/03/19 07:49:16;;;;;;;1.57;1.47;;;;;;;8.71;31.19;96385.97;2615046;47;20621;-71
2022/03/19 07:52:05;;;;;;;2.73;1.80;;;;;;;8.35;31.24;96358.81;2615334;54;20149;-70
2022/03/19 07:54:47;;;;;;;2.13;1.77;;;;;;;8.91;30.26;96404.25;2614892;54;20204;-71
2022/03/19 07:57:20;;;;;;;2.07;1.87;;;;;;;7.90;31.55;96304.22;2615322;54;20694;-70
2022/03/19 08:02:46;;;;;;;2.80;2.60;;;;;;;9.47;41.15;96400.84;2615141;47;20169;-71
2022/03/19 08:05:24;;;;;;;1.50;1.50;;;;;;;9.21;31.29;96405.53;2615158;54;20161;-71
2022/03/19 08:08:05;;;;;;;1.87;1.77;;;;;;;8.33;27.89;96398.97;2614955;54;20205;-70
2022/03/19 08:10:51;;;;;;;1.00;1.00;;;;;;;8.78;36.42;96382.94;2615216;54;20148;-70
2022/03/19 08:13:28;;;;;;;1.27;1.27;;;;;;;9.57;36.17;96410.69;2615130;47;20668;-70
2022/03/19 08:16:04;;;;;;;1.93;1.83;;;;;;;9.81;28.46;96405.13;2614940;47;20172;-70
2022/03/19 08:18:47;;;;;;;2.77;2.53;;;;;;;8.55;30.02;96348.91;2614863;54;20536;-70
2022/03/19 08:21:21;;;;;;;1.43;1.40;;;;;;;7.98;26.88;96366.84;2614981;54;20176;-70
2022/03/19 08:23:54;;;;;;;1.57;1.47;;;;;;;6.83;28.54;96331.94;2615050;47;20159;-71
2022/03/19 08:26:36;;;;;;;2.30;1.83;;;;;;;8.23;28.45;96397.47;2615179;54;20153;-71
2022/03/19 08:29:10;;;;;;;5.27;2.27;;;;;;;7.48;27.55;96345.03;2615227;47;20149;-71
2022/03/19 08:31:47;;;;;;;2.97;2.67;;;;;;;5.95;28.61;96374.56;2614998;47;20160;-70
2022/03/19 08:37:11;;;;;;;3.03;1.63;;;;;;;6.29;35.39;96326.53;2615168;47;20177;-71
2022/03/19 08:42:34;;;;;;;2.17;2.00;;;;;;;5.49;28.82;96337.91;2615213;47;20264;-70
2022/03/19 08:45:05;;;;;;;1.07;1.07;;;;;;;6.60;34.56;96385.84;2614633;54;20156;-70
2022/03/19 08:47:46;;;;;;;2.53;2.00;;;;;;;5.53;29.75;96369.16;2614868;47;20156;-71
2022/03/19 08:50:18;;;;;;;3.30;2.20;;;;;;;5.08;29.55;96314.31;2615189;47;20271;-71
2022/03/19 08:52:50;;;;;;;1.60;1.53;;;;;;;5.54;33.38;96370.63;2615296;39;20561;-71
2022/03/19 08:55:27;;;;;;;0.97;0.97;;;;;;;4.91;33.68;96349.53;2614921;54;20156;-71
2022/03/19 08:58:11;;;;;;;2.70;1.70;;;;;;;5.76;39.10;96366.75;2615693;47;20204;-70
2022/03/19 09:00:47;;;;;;;2.30;2.23;;;;;;;7.04;32.81;96377.13;2615576;47;20145;-71
2022/03/19 09:03:20;;;;;;;2.10;1.87;;;;;;;4.46;30.73;96291.13;2616022;54;20504;-71
2022/03/19 09:05:57;;;;;;;3.17;2.87;;;;;;;4.83;30.81;96345.31;2615921;47;20159;-70
2022/03/19 09:08:31;;;;;;;2.57;2.43;;;;;;;4.04;32.39;96333.22;2615911;47;20175;-71
2022/03/19 09:11:03;;;;;;;3.17;2.23;;;;;;;4.12;33.03;96270.16;2615736;54;20658;-71
2022/03/19 09:13:47;;;;;;;1.97;1.83;;;;;;;4.70;31.68;96356.88;2615630;54;20157;-71
2022/03/19 09:16:21;;;;;;;1.23;1.23;;;;;;;3.81;34.60;96333.44;2615946;54;20145;-71
2022/03/19 09:19:00;;;;;;;3.53;3.33;;;;;;;4.22;33.21;96360.00;2615471;47;20256;-71
2022/03/19 09:21:33;;;;;;;3.30;1.37;;;;;;;4.11;32.06;96329.59;2615764;47;20159;-71
2022/03/19 09:24:04;;;;;;;3.90;1.60;;;;;;;4.69;31.14;96364.56;2615456;47;20690;-71
2022/03/19 09:26:43;;;;;;;3.63;2.37;;;;;;;4.55;29.72;96326.91;2615579;47;20680;-71
2022/03/19 09:29:22;;;;;;;1.10;1.10;;;;;;;4.62;32.20;96359.78;2615812;47;20260;-71
2022/03/19 09:31:54;;;;;;;1.40;1.40;;;;;;;4.79;29.82;96378.66;2615645;47;20153;-71
2022/03/19 09:37:08;;;;;;;1.43;1.40;;;;;;;4.20;32.17;96346.53;2615746;46;20176;-71
2022/03/19 09:42:29;;;;;;;1.67;1.27;;;;;;;3.98;33.49;96349.53;2615562;47;20164;-71
2022/03/19 09:45:11;;;;;;;1.90;1.80;;;;;;;4.29;34.16;96323.44;2615844;46;20199;-71
2022/03/19 09:47:46;;;;;;;1.03;1.03;;;;;;;5.27;40.96;96360.13;2615541;47;20141;-70
2022/03/19 09:50:20;;;;;;;2.47;2.13;;;;;;;4.23;32.40;96356.63;2615613;46;20152;-71
2022/03/19 09:53:03;;;;;;;1.40;1.40;;;;;;;3.03;37.44;96244.91;2615374;54;20195;-71
2022/03/19 09:55:48;;;;;;;;;;;;;;;;;;;;;
2022/03/19 09:58:21;;;;;;;1.50;1.40;;;;;;;1.96;35.65;96199.16;2615948;39;20540;-71
2022/03/19 10:01:00;;;;;;;1.47;1.47;;;;;;;2.76;36.39;96347.47;2615587;47;20167;-70
2022/03/19 10:03:37;;;;;;;1.57;1.47;;;;;;;3.45;34.77;96334.59;2615529;54;20145;-70
2022/03/19 10:09:10;;;;;;;9.90;3.47;;;;;;;6.02;31.84;96362.44;2614619;47;20153;-70
2022/03/19 10:11:41;;;;;;;1.50;1.40;;;;;;;4.23;35.16;96313.81;2615923;39;20559;-70
2022/03/19 10:14:13;;;;;;;1.93;1.63;;;;;;;4.36;39.78;96273.47;2615445;54;20153;-70
2022/03/19 10:16:59;;;;;;;1.60;1.50;;;;;;;4.95;38.40;96343.50;2615556;47;20160;-71
2022/03/19 10:19:34;;;;;;;1.27;1.27;;;;;;;4.41;34.91;96360.16;2615422;47;20705;-71
2022/03/19 10:22:40;;;;;;;1.37;1.37;;;;;;;3.76;34.20;96245.47;2615460;54;20148;-71
2022/03/19 10:28:09;;;;;;;1.73;1.63;;;;;;;3.64;36.17;96344.56;2615731;54;20267;-71
2022/03/19 10:30:45;;;;;;;1.63;1.63;;;;;;;3.62;35.29;96353.53;2615525;47;20156;-71
2022/03/19 10:36:15;;;;;;;4.00;2.80;;;;;;;3.18;34.48;96356.03;2615463;47;20175;-71
2022/03/19 10:38:52;;;;;;;1.70;1.60;;;;;;;3.79;36.19;96308.78;2615303;54;20174;-71
2022/03/19 10:41:33;;;;;;;2.97;2.00;;;;;;;3.02;34.81;96265.06;2615195;47;20141;-71
2022/03/19 10:44:20;;;;;;;4.30;1.70;;;;;;;2.85;33.94;96221.69;2615147;39;20246;-71
2022/03/19 10:46:56;;;;;;;2.03;1.93;;;;;;;2.58;35.70;96289.91;2615075;54;20609;-71
2022/03/19 10:52:25;;;;;;;1.20;1.20;;;;;;;4.16;34.23;96340.59;2615463;47;20153;-71
2022/03/19 10:55:03;;;;;;;1.43;1.43;;;;;;;3.73;33.49;96346.75;2615373;47;20161;-70
2022/03/19 10:57:43;;;;;;;1.40;0.93;;;;;;;3.85;34.02;96235.66;2615322;47;20228;-70
2022/03/19 11:00:19;;;;;;;1.20;1.20;;;;;;;4.75;33.29;96249.25;2615482;47;20156;-71
2022/03/19 11:02:54;;;;;;;3.10;1.37;;;;;;;4.81;32.05;96270.09;2616027;54;20688;-70
2022/03/19 11:05:37;;;;;;;2.73;2.27;;;;;;;2.77;34.52;96296.53;2615302;47;20324;-71
2022/03/19 11:17:28;;;;;;;2.50;2.40;;;;;;;2.48;35.70;96217.03;2613967;46;20139;-72
2022/03/19 12:15:41;;;;;;;1.07;0.60;;;;;;;5.33;35.74;96206.06;2613784;54;20136;-70
2022/03/19 12:18:33;;;;;;;1.37;1.27;;;;;;;4.39;33.73;96180.47;2614679;39;20925;-71
2022/03/19 12:21:28;;;;;;;1.80;1.10;;;;;;;4.46;39.46;96294.66;2615481;54;20785;-71
2022/03/19 12:24:16;;;;;;;4.13;1.90;;;;;;;2.96;35.39;96172.94;2615732;47;20168;-71
2022/03/19 12:27:00;;;;;;;2.20;2.07;;;;;;;3.23;36.09;96276.69;2615982;31;20626;-71
2022/03/19 12:29:34;;;;;;;2.53;2.37;;;;;;;2.33;37.67;96287.75;2614867;47;20148;-70
2022/03/19 12:35:04;;;;;;;1.07;1.07;;;;;;;3.77;38.41;96258.16;2615163;46;20168;-71
2022/03/19 12:38:00;;;;;;;2.00;1.53;;;;;;;3.46;34.78;96198.84;2615421;54;20148;-75
2022/03/19 12:46:40;;;;;;;1.43;1.40;;;;;;;4.09;35.42;96057.47;2613256;47;20155;-70
2022/03/19 12:49:19;;;;;;;1.63;1.57;;;;;;;3.81;33.76;96208.06;2613578;47;21020;-71
2022/03/19 12:51:53;;;;;;;1.67;1.30;;;;;;;5.00;34.23;96263.88;2614621;47;20144;-71
2022/03/19 13:01:07;;;;;;;1.70;1.37;;;;;;;5.24;43.06;96222.88;2614625;47;20137;-69
2022/03/19 13:07:43;;;;;;;1.50;1.50;;;;;;;5.36;33.51;96269.53;2615038;47;20133;-71
2022/03/19 13:10:17;;;;;;;1.03;1.03;;;;;;;4.37;33.23;96143.09;2615008;54;20149;-70
2022/03/19 13:12:58;;;;;;;;;;;;;;;;;;;;;
2022/03/19 13:15:35;;;;;;;7.00;1.57;;;;;;;3.55;35.54;96254.22;2615155;47;20161;-71
2022/03/19 13:18:35;;;;;;;1.77;1.77;;;;;;;3.52;36.66;96227.38;2615197;47;20161;-71
2022/03/19 13:21:09;;;;;;;1.10;1.10;;;;;;;3.98;34.45;96226.19;2614911;47;20176;-71
2022/03/19 13:23:41;;;;;;;1.60;1.53;;;;;;;4.59;41.49;96259.91;2615291;39;20234;-71
2022/03/19 13:26:18;;;;;;;0.60;0.60;;;;;;;4.58;38.50;96205.09;2614878;47;20779;-71
2022/03/19 13:29:13;;;;;;;1.17;1.17;;;;;;;4.62;34.12;96264.38;2614929;47;20168;-70
2022/03/19 13:32:02;;;;;;;1.67;1.30;;;;;;;4.55;32.94;96259.56;2614320;54;20665;-71
2022/03/19 13:35:17;;;;;;;1.27;1.27;;;;;;;4.72;35.00;96264.44;2615488;39;20538;-71
2022/03/19 13:40:34;;;;;;;0.93;0.93;;;;;;;3.63;33.12;96186.19;2615065;39;20534;-70
2022/03/19 13:43:05;;;;;;;2.63;2.53;;;;;;;3.31;33.47;96181.41;2614839;47;20645;-71
2022/03/19 13:45:53;;;;;;;1.30;1.20;;;;;;;4.77;33.42;96232.56;2615618;47;20153;-71
2022/03/19 13:48:31;;;;;;;2.57;2.00;;;;;;;4.91;34.44;96203.53;2615689;47;20733;-71
2022/03/19 13:51:05;;;;;;;1.57;1.47;;;;;;;3.31;34.62;96201.00;2615797;47;20149;-71
2022/03/19 13:53:55;;;;;;;1.93;1.33;;;;;;;3.86;34.90;96223.13;2615883;47;20158;-70
2022/03/19 13:57:02;;;;;;;0.57;0.57;;;;;;;4.05;35.40;96177.72;2615693;54;20164;-70
2022/03/19 13:59:34;;;;;;;3.00;2.15;;;;;;;4.48;33.34;96243.59;2615405;47;20396;-71
2022/03/19 14:02:12;;;;;;;4.20;1.50;;;;;;;4.62;37.82;96269.97;2615042;54;20185;-71
2022/03/19 14:04:51;;;;;;;1.60;1.50;;;;;;;4.18;34.27;96178.09;2615492;54;20155;-71
2022/03/19 14:11:00;;;;;;;3.90;2.43;;;;;;;3.10;33.71;96207.72;2614615;47;20164;-72
2022/03/19 14:13:48;;;;;;;2.97;1.67;;;;;;;2.57;34.31;96250.00;2615820;47;20187;-70
2022/03/19 14:16:20;;;;;;;1.50;1.43;;;;;;;2.49;35.58;96238.09;2616001;54;20157;-71
2022/03/19 14:21:39;;;;;;;1.57;1.47;;;;;;;3.19;35.11;96256.75;2616431;54;20155;-72
2022/03/19 14:24:20;;;;;;;1.10;1.10;;;;;;;3.93;33.56;96164.19;2616693;39;20211;-74
2022/03/19 14:26:56;;;;;;;0.60;0.60;;;;;;;4.07;33.03;96231.16;2616409;54;20164;-71
2022/03/19 14:29:34;;;;;;;2.50;1.90;;;;;;;3.87;33.23;96249.84;2616064;47;20308;-71
2022/03/19 14:32:20;;;;;;;0.93;0.93;;;;;;;3.54;33.61;96168.72;2616553;46;20157;-73
2022/03/19 14:34:51;;;;;;;0.40;0.40;;;;;;;2.73;34.94;96147.88;2616187;46;20645;-72
2022/03/19 14:37:23;;;;;;;1.30;1.30;;;;;;;3.82;37.65;96217.94;2616159;47;20264;-71
2022/03/19 14:40:03;;;;;;;0.90;0.90;;;;;;;2.34;37.12;96182.97;2616192;54;20161;-71
2022/03/19 14:42:38;;;;;;;1.33;1.33;;;;;;;3.02;35.53;96223.81;2616197;47;20189;-70
2022/03/19 14:45:10;;;;;;;1.50;1.40;;;;;;;3.21;34.50;96173.66;2616158;47;20192;-71
2022/03/19 14:47:50;;;;;;;2.47;0.70;;;;;;;3.20;38.40;96202.22;2616189;47;20177;-70
2022/03/19 14:50:22;;;;;;;0.90;0.90;;;;;;;3.79;34.86;96235.16;2616038;47;20176;-72
2022/03/19 14:52:53;;;;;;;4.37;1.23;;;;;;;3.72;40.36;96146.28;2616745;39;20548;-71
2022/03/19 14:55:24;;;;;;;1.87;1.77;;;;;;;4.38;35.42;96211.91;2616574;39;20694;-70
2022/03/19 14:58:07;;;;;;;1.23;1.07;;;;;;;3.99;34.31;96200.38;2616235;54;20152;-70
2022/03/19 15:00:39;;;;;;;2.63;1.80;;;;;;;3.40;37.93;96113.56;2616205;47;20159;-70
2022/03/19 15:03:20;;;;;;;1.40;1.30;;;;;;;3.80;33.85;96236.66;2616016;54;20212;-71
2022/03/19 15:05:51;;;;;;;0.90;0.90;;;;;;;3.70;34.71;96188.16;2616545;39;20624;-71
2022/03/19 15:08:23;;;;;;;1.87;1.77;;;;;;;2.97;35.43;96180.00;2616140;46;20134;-71
2022/03/19 15:10:54;;;;;;;1.50;1.50;;;;;;;2.75;36.12;96156.44;2616055;47;20280;-70
2022/03/19 15:13:38;;;;;;;1.57;1.53;;;;;;;2.69;35.46;96228.69;2615815;54;20285;-70
2022/03/19 15:16:11;;;;;;;1.53;1.10;;;;;;;3.18;35.90;96177.59;2616081;54;20168;-71
2022/03/19 15:18:52;;;;;;;1.20;1.10;;;;;;;3.29;38.05;96218.38;2616106;47;20148;-71
2022/03/19 15:21:23;;;;;;;2.77;1.80;;;;;;;2.06;36.17;96139.31;2616201;47;20153;-70
2022/03/19 15:23:54;;;;;;;1.30;1.30;;;;;;;2.46;36.22;96116.19;2616011;47;20153;-71
2022/03/19 15:26:35;;;;;;;2.10;1.30;;;;;;;3.50;40.98;96201.97;2616784;54;20149;-70
2022/03/19 15:31:57;;;;;;;1.10;1.10;;;;;;;2.83;36.42;96229.91;2616122;47;20157;-71
2022/03/19 15:34:30;;;;;;;1.33;1.33;;;;;;;2.81;35.97;96156.97;2615915;54;20152;-70
2022/03/19 15:39:52;;;;;;;1.07;0.93;;;;;;;3.08;37.42;96162.75;2615753;47;20672;-70
2022/03/19 15:42:36;;;;;;;1.30;1.30;;;;;;;1.90;37.07;96149.09;2616086;54;20664;-70
2022/03/19 15:50:42;;;;;;;1.77;1.77;;;;;;;0.77;39.45;96099.78;2616426;39;20566;-71
2022/03/19 15:53:13;;;;;;;1.10;1.10;;;;;;;1.58;37.27;96188.81;2615861;54;20175;-70
2022/03/19 15:55:44;;;;;;;1.57;1.50;;;;;;;1.56;37.52;96165.56;2615817;54;20160;-70
2022/03/19 15:58:15;;;;;;;0.80;0.80;;;;;;;2.41;41.36;96221.38;2616142;54;20152;-70
2022/03/19 16:00:58;;;;;;;1.53;1.43;;;;;;;1.65;37.47;96165.72;2615888;47;20156;-72
2022/03/19 16:03:30;;;;;;;1.00;1.00;;;;;;;1.38;37.17;96157.00;2615915;47;20204;-71
2022/03/19 16:06:09;;;;;;;0.90;0.90;;;;;;;2.35;38.10;96173.28;2615466;47;20657;-70
2022/03/19 16:08:41;;;;;;;1.30;1.17;;;;;;;2.80;36.09;96261.09;2615931;47;20216;-71
2022/03/19 16:11:11;;;;;;;1.67;1.57;;;;;;;2.61;42.40;96193.66;2615619;54;20209;-71
2022/03/19 16:13:41;;;;;;;1.10;1.10;;;;;;;1.90;37.23;96230.13;2615745;54;20164;-70
2022/03/19 16:16:18;;;;;;;0.93;0.93;;;;;;;1.68;37.59;96170.19;2615673;54;20665;-70
2022/03/19 16:18:53;;;;;;;1.20;0.80;;;;;;;2.48;38.73;96258.97;2616180;54;20152;-70
2022/03/19 16:21:23;;;;;;;1.33;0.80;;;;;;;2.00;38.68;96255.41;2615846;54;20158;-69
2022/03/19 16:23:53;;;;;;;1.70;1.37;;;;;;;1.82;38.01;96245.38;2616207;39;20216;-70
2022/03/19 16:26:24;;;;;;;1.23;1.23;;;;;;;1.77;38.26;96281.34;2615681;54;20152;-71
2022/03/19 16:29:02;;;;;;;0.60;0.60;;;;;;;1.74;38.90;96273.34;2615455;54;20196;-70
2022/03/19 16:31:39;;;;;;;0.53;0.53;;;;;;;1.14;38.67;96162.44;2615456;54;20160;-70
2022/03/19 16:34:20;;;;;;;1.37;1.30;;;;;;;1.53;38.80;96295.88;2616127;39;20646;-70
2022/03/19 16:36:54;;;;;;;2.77;1.43;;;;;;;0.50;39.83;96188.59;2615810;54;20153;-70
2022/03/19 16:39:27;;;;;;;1.07;1.07;;;;;;;0.92;39.44;96231.63;2615834;46;20164;-70
2022/03/19 16:42:04;;;;;;;1.03;1.03;;;;;;;1.13;41.40;96211.94;2615506;47;20413;-71
2022/03/19 16:44:36;;;;;;;0.70;0.70;;;;;;;1.50;39.78;96310.22;2615550;47;20726;-71
2022/03/19 16:47:12;;;;;;;2.53;1.90;;;;;;;1.10;39.88;96315.53;2616259;54;20183;-71
2022/03/19 16:49:53;;;;;;;3.00;1.43;;;;;;;0.85;40.31;96302.09;2615606;54;20144;-70
2022/03/19 16:52:25;;;;;;;1.13;1.13;;;;;;;0.77;40.32;96242.03;2615617;54;20156;-70
2022/03/19 16:54:56;;;;;;;1.37;1.37;;;;;;;0.73;40.19;96241.63;2615891;39;20564;-70
2022/03/19 16:57:36;;;;;;;1.53;1.43;;;;;;;1.23;40.05;96226.09;2615547;47;20160;-70
2022/03/19 17:00:08;;;;;;;1.27;1.27;;;;;;;1.55;39.56;96334.41;2615447;54;20244;-69
2022/03/19 17:02:50;;;;;;;0.97;0.97;;;;;;;2.06;49.72;96286.69;2615699;47;20193;-70
2022/03/19 17:05:24;;;;;;;1.07;1.07;;;;;;;2.54;40.07;96343.44;2616275;54;20187;-69
2022/03/19 17:08:06;;;;;;;1.97;1.73;;;;;;;1.17;39.63;96279.28;2615798;54;20147;-70
2022/03/19 17:10:36;;;;;;;2.00;1.80;;;;;;;-0.52;40.26;96175.34;2615385;47;20161;-70
2022/03/19 17:13:19;;;;;;;1.27;1.27;;;;;;;0.94;40.18;96360.16;2615595;47;20156;-70
2022/03/19 17:15:49;;;;;;;1.10;0.90;;;;;;;1.07;40.86;96336.94;2615359;47;20676;-71
2022/03/19 17:18:32;;;;;;;1.10;1.10;;;;;;;1.74;40.60;96355.09;2615774;54;20148;-70
2022/03/19 17:21:04;;;;;;;2.90;2.63;;;;;;;2.23;40.59;96361.59;2616395;54;20137;-70
2022/03/19 17:23:34;;;;;;;2.13;2.03;;;;;;;2.70;38.23;96347.69;2616356;47;20166;-70
2022/03/19 17:26:16;;;;;;;1.30;1.20;;;;;;;1.57;38.31;96320.63;2616419;54;20697;-70
2022/03/19 17:28:49;;;;;;;1.27;1.07;;;;;;;1.95;39.84;96366.06;2615932;51;20164;-70
2022/03/19 17:31:20;;;;;;;0.93;0.93;;;;;;;1.86;40.10;96371.50;2616408;54;20176;-70
2022/03/19 17:34:03;;;;;;;2.43;2.10;;;;;;;2.16;39.33;96379.13;2616001;54;20208;-71
2022/03/19 17:36:35;;;;;;;2.47;2.27;;;;;;;1.74;39.60;96360.69;2616271;47;20141;-71
2022/03/19 17:39:07;;;;;;;1.00;1.00;;;;;;;1.67;39.65;96369.03;2616042;54;20270;-71
2022/03/19 17:41:42;;;;;;;9.30;4.53;;;;;;;1.44;39.60;96327.16;2616335;47;20152;-70
2022/03/19 17:44:17;;;;;;;2.93;2.23;;;;;;;0.36;42.51;96391.47;2616036;54;20148;-72
2022/03/19 17:46:49;;;;;;;1.53;1.43;;;;;;;-0.48;43.87;96365.78;2616227;54;20167;-70
2022/03/19 17:49:30;;;;;;;2.20;1.53;;;;;;;-0.65;45.38;96395.28;2616841;54;20166;-71
2022/03/19 17:52:01;;;;;;;2.17;1.70;;;;;;;-1.32;45.27;96349.50;2616834;54;20167;-71
2022/03/19 17:54:37;;;;;;;1.23;1.23;;;;;;;-0.91;45.47;96405.22;2615989;54;20269;-70
2022/03/19 17:57:18;;;;;;;2.57;2.47;;;;;;;-0.85;44.64;96407.88;2616285;54;20159;-71
2022/03/19 17:59:53;;;;;;;3.20;2.83;;;;;;;-1.89;44.45;96313.03;2616012;47;20153;-71